Time;durP1;ratioP1;P1;durP2;ratioP2;P2;SDS_P1;SDS_P2;PMS_P1;PMS_P2;Temp;Humidity;BMP_temperature;BMP_pressure;BME280_temperature;BME280_humidity;BME280_pressure;Samples;Min_cycle;Max_cycle;Signal;HPM_P1;HPM_P2
2022/09/27 00:01:48;;;;;;;8.70;6.75;;;;;;;15.45;100.00;98521.56;1626104;87;21248;-70
2022/09/27 00:04:18;;;;;;;11.75;6.03;;;;;;;15.42;100.00;98520.33;1654898;85;20936;-71
2022/09/27 00:06:46;;;;;;;12.35;6.87;;;;;;;15.42;100.00;98516.78;1651428;85;20878;-73
2022/09/27 00:09:13;;;;;;;7.55;6.15;;;;;;;15.37;100.00;98505.41;1649455;85;21008;-70
2022/09/27 00:11:46;;;;;;;13.35;6.87;;;;;;;15.37;100.00;98490.75;1656701;86;20936;-69
2022/09/27 00:14:22;;;;;;;8.38;6.28;;;;;;;15.35;100.00;98489.73;1646269;85;20941;-72
2022/09/27 00:16:48;;;;;;;11.50;6.03;;;;;;;15.36;100.00;98487.16;1655267;85;21079;-70
2022/09/27 00:19:20;;;;;;;13.25;6.60;;;;;;;15.40;100.00;98492.77;1622097;86;20998;-71
2022/09/27 00:21:47;;;;;;;8.98;6.70;;;;;;;15.36;100.00;98484.97;1656579;86;21019;-71
2022/09/27 00:24:21;;;;;;;10.43;6.50;;;;;;;15.30;100.00;98496.40;1649056;85;21031;-69
2022/09/27 00:26:48;;;;;;;7.05;6.22;;;;;;;15.29;100.00;98492.03;1609572;87;21218;-72
2022/09/27 00:29:16;;;;;;;8.88;6.90;;;;;;;15.25;100.00;98491.78;1628496;86;20997;-70
2022/09/27 00:31:52;;;;;;;8.03;6.28;;;;;;;15.19;100.00;98481.59;1632003;86;20916;-69
2022/09/27 00:34:24;;;;;;;8.78;6.45;;;;;;;15.16;100.00;98479.00;1633728;86;21139;-72
2022/09/27 00:36:55;;;;;;;11.12;7.00;;;;;;;15.16;100.00;98466.52;1638426;86;20909;-73
2022/09/27 00:39:22;;;;;;;6.72;5.67;;;;;;;15.17;100.00;98457.59;1635607;86;21952;-70
2022/09/27 00:41:55;;;;;;;8.40;5.45;;;;;;;15.21;100.00;98459.83;1632955;86;21000;-69
2022/09/27 00:44:37;;;;;;;9.70;6.15;;;;;;;15.27;100.00;98455.54;1602130;88;20993;-70
2022/09/27 00:47:30;;;;;;;12.70;6.25;;;;;;;15.32;100.00;98459.95;1606838;88;21516;-70
2022/09/27 00:50:21;;;;;;;7.95;6.45;;;;;;;15.36;100.00;98453.86;1631586;86;20980;-74
2022/09/27 00:53:17;;;;;;;9.05;7.05;;;;;;;15.39;100.00;98450.33;1644161;86;21520;-72
2022/09/27 00:55:51;;;;;;;10.03;5.92;;;;;;;15.34;100.00;98450.66;1634848;86;20948;-69
2022/09/27 00:58:28;;;;;;;9.38;6.20;;;;;;;15.35;100.00;98443.95;1642971;85;21094;-70
2022/09/27 01:01:06;;;;;;;8.25;6.92;;;;;;;15.40;100.00;98437.25;1660761;85;20972;-70
2022/09/27 01:03:42;;;;;;;8.03;6.28;;;;;;;15.41;100.00;98429.13;1663607;84;20972;-70
2022/09/27 01:06:18;;;;;;;10.18;6.92;;;;;;;15.42;100.00;98434.30;1661065;85;20948;-68
2022/09/27 01:08:52;;;;;;;9.55;7.30;;;;;;;15.45;100.00;98434.95;1662238;85;21022;-69
2022/09/27 01:11:33;;;;;;;8.78;6.95;;;;;;;15.49;100.00;98432.80;1630788;86;21027;-70
2022/09/27 01:15:04;;;;;;;10.63;7.15;;;;;;;15.47;100.00;98429.02;1668316;84;21027;-69
2022/09/27 01:17:58;;;;;;;8.30;6.87;;;;;;;15.37;100.00;98424.14;1664066;86;20940;-71
2022/09/27 01:20:48;;;;;;;8.70;7.05;;;;;;;15.33;100.00;98419.94;1656540;85;20996;-70
2022/09/27 01:23:34;;;;;;;14.18;7.80;;;;;;;15.26;100.00;98422.05;1673841;84;21075;-72
2022/09/27 01:26:25;;;;;;;9.53;6.80;;;;;;;15.26;100.00;98418.46;1687983;85;21050;-70
2022/09/27 01:29:12;;;;;;;9.53;7.50;;;;;;;15.31;100.00;98402.86;1665547;85;21024;-71
2022/09/27 01:32:13;;;;;;;14.38;7.03;;;;;;;15.27;100.00;98405.59;1608823;86;21027;-71
2022/09/27 01:35:05;;;;;;;12.45;7.03;;;;;;;15.26;100.00;98395.69;1678597;85;21407;-72
2022/09/27 01:37:50;;;;;;;10.23;8.13;;;;;;;15.24;100.00;98400.00;1665199;85;21393;-72
2022/09/27 01:40:27;;;;;;;12.65;6.80;;;;;;;15.27;100.00;98400.66;1666026;85;20998;-75
2022/09/27 01:43:29;;;;;;;11.63;7.15;;;;;;;15.28;100.00;98398.08;1609643;85;20999;-71
2022/09/27 01:46:04;;;;;;;10.82;7.42;;;;;;;15.28;100.00;98389.17;1683662;84;21008;-70
2022/09/27 01:48:49;;;;;;;9.58;7.92;;;;;;;15.27;100.00;98388.95;1628517;85;21307;-70
2022/09/27 01:51:38;;;;;;;9.85;7.85;;;;;;;15.19;100.00;98381.72;1660626;86;21044;-70
2022/09/27 01:54:06;;;;;;;12.45;7.97;;;;;;;15.08;100.00;98371.30;1656719;84;21032;-71
2022/09/27 01:56:58;;;;;;;9.80;7.85;;;;;;;15.13;100.00;98366.61;1654305;84;21543;-70
2022/09/27 01:59:49;;;;;;;11.30;8.00;;;;;;;15.20;100.00;98363.31;1657817;86;21083;-73
2022/09/27 02:02:46;;;;;;;11.10;8.03;;;;;;;15.24;100.00;98361.97;1659476;84;21130;-72
2022/09/27 02:05:36;;;;;;;10.20;8.85;;;;;;;15.26;100.00;98363.77;1663696;84;21019;-69
2022/09/27 02:08:21;;;;;;;14.85;10.63;;;;;;;15.21;100.00;98364.11;1668342;86;20974;-69
2022/09/27 02:10:56;;;;;;;11.50;9.00;;;;;;;15.07;100.00;98364.17;1643770;86;21099;-73
2022/09/27 02:13:40;;;;;;;14.67;9.83;;;;;;;15.00;100.00;98357.72;1677029;84;21067;-71
2022/09/27 02:16:28;;;;;;;13.30;8.60;;;;;;;14.98;100.00;98358.10;1671409;85;21796;-71
2022/09/27 02:19:14;;;;;;;12.50;8.75;;;;;;;14.99;100.00;98359.72;1677970;85;21051;-74
2022/09/27 02:22:09;;;;;;;12.85;10.20;;;;;;;15.03;100.00;98363.31;1644279;86;21110;-71
2022/09/27 02:24:59;;;;;;;14.95;9.50;;;;;;;15.07;100.00;98359.20;1661587;84;20987;-72
2022/09/27 02:27:33;;;;;;;16.70;9.73;;;;;;;15.04;100.00;98359.38;1657987;86;21444;-71
2022/09/27 02:30:10;;;;;;;20.55;10.63;;;;;;;15.05;100.00;98351.27;1657938;85;21141;-71
2022/09/27 02:32:38;;;;;;;13.70;10.30;;;;;;;15.08;100.00;98344.95;1663811;86;21058;-69
2022/09/27 02:35:20;;;;;;;16.52;11.33;;;;;;;15.06;100.00;98354.23;1663914;86;21030;-70
2022/09/27 02:37:47;;;;;;;16.70;11.78;;;;;;;15.11;100.00;98351.73;1664056;86;20963;-70
2022/09/27 02:40:15;;;;;;;16.23;10.82;;;;;;;15.13;100.00;98342.41;1659427;86;20976;-71
2022/09/27 02:42:42;;;;;;;16.77;11.80;;;;;;;15.17;100.00;98339.69;1678554;84;21040;-70
2022/09/27 02:45:26;;;;;;;16.55;12.60;;;;;;;15.18;100.00;98337.91;1684710;85;21528;-71
2022/09/27 02:48:07;;;;;;;16.17;11.28;;;;;;;15.13;100.00;98337.48;1687955;85;21113;-74
2022/09/27 02:51:08;;;;;;;19.48;12.05;;;;;;;15.07;100.00;98335.62;1665556;84;20948;-69
2022/09/27 02:53:57;;;;;;;17.60;12.75;;;;;;;15.17;100.00;98323.84;1676327;84;21060;-69
2022/09/27 02:56:53;;;;;;;22.35;13.68;;;;;;;15.19;100.00;98322.88;1687721;85;21781;-71
2022/09/27 02:59:49;;;;;;;21.85;15.85;;;;;;;15.24;100.00;98327.86;1650854;86;21019;-71
2022/09/27 03:02:52;;;;;;;25.90;15.55;;;;;;;15.26;100.00;98328.28;1651609;84;21029;-71
2022/09/27 03:05:39;;;;;;;24.18;16.02;;;;;;;15.26;100.00;98327.70;1655148;86;20983;-70
2022/09/27 03:08:06;;;;;;;27.82;17.42;;;;;;;15.27;100.00;98328.52;1657366;85;21016;-72
2022/09/27 03:10:33;;;;;;;30.90;16.32;;;;;;;15.27;100.00;98325.13;1639346;86;21162;-72
2022/09/27 03:13:04;;;;;;;32.13;18.55;;;;;;;15.27;100.00;98315.41;1663593;84;20911;-70
2022/09/27 03:15:36;;;;;;;26.87;16.32;;;;;;;15.30;100.00;98320.81;1664035;86;21043;-71
2022/09/27 03:18:08;;;;;;;28.05;17.12;;;;;;;15.32;100.00;98308.13;1662415;86;21506;-71
2022/09/27 03:20:46;;;;;;;25.75;19.05;;;;;;;15.33;100.00;98304.20;1663757;84;21020;-70
2022/09/27 03:23:19;;;;;;;26.45;19.42;;;;;;;15.37;100.00;98307.59;1652980;85;21058;-73
2022/09/27 03:25:48;;;;;;;30.68;20.50;;;;;;;15.40;100.00;98319.31;1663696;86;21460;-71
2022/09/27 03:28:24;;;;;;;28.55;19.90;;;;;;;15.42;100.00;98323.89;1663582;86;20987;-71
2022/09/27 03:30:53;;;;;;;29.75;19.50;;;;;;;15.41;100.00;98322.28;1653851;85;21540;-70
2022/09/27 03:33:24;;;;;;;29.52;18.30;;;;;;;15.40;100.00;98321.50;1651125;86;21443;-72
2022/09/27 03:35:54;;;;;;;28.05;19.12;;;;;;;15.40;100.00;98318.73;1647513;86;20928;-71
2022/09/27 03:38:21;;;;;;;30.00;20.48;;;;;;;15.41;100.00;98314.77;1652421;86;21528;-70
2022/09/27 03:40:48;;;;;;;30.05;19.92;;;;;;;15.43;100.00;98313.80;1650349;85;21826;-68
2022/09/27 03:43:15;;;;;;;32.48;20.40;;;;;;;15.40;100.00;98314.56;1658215;85;20995;-68
2022/09/27 03:45:44;;;;;;;32.55;20.82;;;;;;;15.41;100.00;98314.77;1653108;86;21017;-68
2022/09/27 03:48:11;;;;;;;27.67;20.30;;;;;;;15.41;100.00;98307.83;1651543;86;21266;-69
2022/09/27 03:50:40;;;;;;;25.88;19.00;;;;;;;15.43;100.00;98304.66;1649007;85;21034;-69
2022/09/27 03:53:06;;;;;;;29.23;20.77;;;;;;;15.46;100.00;98302.51;1648914;85;20979;-68
2022/09/27 03:55:35;;;;;;;31.27;20.00;;;;;;;15.48;100.00;98297.38;1648468;85;21454;-71
2022/09/27 03:58:04;;;;;;;27.82;18.85;;;;;;;15.44;100.00;98300.12;1654889;85;21045;-70
2022/09/27 04:00:35;;;;;;;27.62;18.77;;;;;;;15.47;100.00;98302.73;1647073;87;21163;-72
2022/09/27 04:03:06;;;;;;;33.70;20.97;;;;;;;15.49;100.00;98296.80;1645987;86;21062;-75
2022/09/27 04:05:39;;;;;;;36.20;22.52;;;;;;;15.47;100.00;98293.59;1639014;86;21055;-71
2022/09/27 04:08:10;;;;;;;29.20;19.77;;;;;;;15.35;100.00;98291.91;1654110;86;21524;-72
2022/09/27 04:10:39;;;;;;;37.53;23.60;;;;;;;15.26;100.00;98295.80;1654686;86;21545;-70
2022/09/27 04:13:09;;;;;;;30.92;23.05;;;;;;;15.32;100.00;98297.62;1630397;86;21142;-70
2022/09/27 04:15:44;;;;;;;30.08;20.77;;;;;;;15.27;100.00;98302.93;1652529;86;21135;-72
2022/09/27 04:18:18;;;;;;;35.95;21.97;;;;;;;15.24;100.00;98305.67;1654454;86;21619;-70
2022/09/27 04:20:58;;;;;;;36.60;21.48;;;;;;;15.25;100.00;98302.51;1650869;86;21056;-70
2022/09/27 04:23:25;;;;;;;31.87;22.20;;;;;;;15.25;100.00;98296.95;1654755;86;21469;-71
2022/09/27 04:25:53;;;;;;;30.27;21.57;;;;;;;15.15;100.00;98299.06;1629894;86;21277;-69
2022/09/27 04:28:31;;;;;;;37.40;22.10;;;;;;;15.22;100.00;98297.73;1634402;86;21552;-71
2022/09/27 04:31:00;;;;;;;32.25;21.30;;;;;;;15.26;100.00;98300.54;1661140;85;21015;-70
2022/09/27 04:33:35;;;;;;;34.65;20.68;;;;;;;15.27;100.00;98291.05;1661963;85;21022;-71
2022/09/27 04:36:26;;;;;;;33.85;21.73;;;;;;;15.26;100.00;98286.67;1662991;85;21004;-72
2022/09/27 04:38:59;;;;;;;40.20;21.73;;;;;;;15.26;100.00;98283.89;1632777;87;21163;-72
2022/09/27 04:41:28;;;;;;;43.15;25.10;;;;;;;15.26;100.00;98285.28;1660239;86;21030;-76
2022/09/27 04:44:00;;;;;;;39.50;25.02;;;;;;;15.19;100.00;98279.88;1667488;86;20912;-72
2022/09/27 04:46:32;;;;;;;38.10;25.72;;;;;;;15.12;100.00;98277.61;1664136;86;20979;-73
2022/09/27 04:49:00;;;;;;;47.45;26.73;;;;;;;15.11;100.00;98280.19;1664155;86;20995;-72
2022/09/27 04:51:38;;;;;;;43.35;26.33;;;;;;;15.16;100.00;98270.94;1664499;86;20908;-76
2022/09/27 04:54:04;;;;;;;34.45;24.37;;;;;;;15.16;100.00;98267.36;1644969;86;21020;-76
2022/09/27 04:56:35;;;;;;;48.25;24.98;;;;;;;15.19;100.00;98256.88;1664157;85;21071;-72
2022/09/27 04:59:03;;;;;;;43.65;26.87;;;;;;;15.25;100.00;98255.95;1640030;84;21031;-75
2022/09/27 05:01:34;;;;;;;42.58;25.68;;;;;;;15.31;100.00;98255.80;1637120;87;21070;-77
2022/09/27 05:04:15;;;;;;;38.90;24.75;;;;;;;15.36;100.00;98245.73;1637157;87;21181;-76
2022/09/27 05:06:45;;;;;;;40.23;24.95;;;;;;;15.41;100.00;98244.58;1636829;87;21062;-74
2022/09/27 05:09:21;;;;;;;37.33;23.40;;;;;;;15.45;100.00;98242.64;1635615;87;21106;-72
2022/09/27 05:11:53;;;;;;;43.73;25.40;;;;;;;15.46;100.00;98244.22;1632808;87;21071;-72
2022/09/27 05:14:34;;;;;;;38.85;22.35;;;;;;;15.47;100.00;98240.87;1638640;84;20976;-75
2022/09/27 05:17:10;;;;;;;36.80;24.37;;;;;;;15.49;100.00;98248.23;1637876;84;21152;-73
2022/09/27 05:19:55;;;;;;;34.38;23.35;;;;;;;15.51;100.00;98245.84;1663939;85;20976;-73
2022/09/27 05:22:24;;;;;;;32.30;22.35;;;;;;;15.55;100.00;98241.92;1639629;86;21027;-72
2022/09/27 05:24:51;;;;;;;29.82;21.27;;;;;;;15.58;100.00;98238.38;1650614;84;21073;-73
2022/09/27 05:27:19;;;;;;;47.15;21.80;;;;;;;15.66;100.00;98238.44;1667308;84;21091;-74
2022/09/27 05:29:46;;;;;;;31.73;22.58;;;;;;;15.70;100.00;98242.83;1653221;85;21100;-73
2022/09/27 05:32:20;;;;;;;33.20;22.70;;;;;;;15.76;100.00;98251.57;1650291;85;21498;-72
2022/09/27 05:34:52;;;;;;;39.85;25.32;;;;;;;15.78;100.00;98260.31;1654013;86;21103;-72
2022/09/27 05:37:17;;;;;;;38.35;25.57;;;;;;;15.75;100.00;98262.48;1649894;85;21091;-76
2022/09/27 05:39:45;;;;;;;33.67;22.70;;;;;;;15.69;100.00;98262.03;1657513;85;21406;-68
2022/09/27 05:42:15;;;;;;;41.83;24.63;;;;;;;15.69;100.00;98268.98;1678028;85;21316;-71
2022/09/27 05:44:51;;;;;;;41.18;23.73;;;;;;;15.74;100.00;98265.65;1643364;85;20917;-71
2022/09/27 05:47:19;;;;;;;36.77;24.82;;;;;;;15.78;100.00;98267.88;1620416;87;21123;-72
2022/09/27 05:53:41;;;;;;;31.50;21.82;;;;;;;15.87;100.00;98260.56;1648105;87;21001;-73
2022/09/27 05:56:12;;;;;;;31.77;22.80;;;;;;;15.93;100.00;98270.15;1646734;86;21858;-74
2022/09/27 05:58:49;;;;;;;35.03;22.77;;;;;;;15.96;100.00;98263.81;1611684;87;21020;-77
2022/09/27 06:01:18;;;;;;;39.55;25.05;;;;;;;16.01;100.00;98271.81;1648456;85;21111;-73
2022/09/27 06:03:50;;;;;;;35.45;22.10;;;;;;;16.01;100.00;98264.87;1619036;87;21564;-72
2022/09/27 06:06:27;;;;;;;33.45;21.70;;;;;;;16.04;100.00;98262.70;1542436;92;21010;-76
2022/09/27 06:09:00;;;;;;;38.08;23.35;;;;;;;16.09;100.00;98260.14;1643710;87;21258;-82
2022/09/27 06:39:05;;;;;;;58.05;26.15;;;;;;;16.30;100.00;98258.08;1634938;87;21639;-72
2022/09/27 06:41:34;;;;;;;52.05;25.62;;;;;;;16.29;100.00;98257.08;1710552;83;20940;-75
2022/09/27 06:44:06;;;;;;;46.45;26.25;;;;;;;16.21;100.00;98260.40;1720984;82;21532;-70
2022/09/27 06:46:38;;;;;;;61.30;27.82;;;;;;;16.25;100.00;98260.42;1705918;83;21467;-72
2022/09/27 06:49:13;;;;;;;56.88;25.68;;;;;;;16.26;100.00;98259.22;1715191;82;21527;-74
2022/09/27 06:51:41;;;;;;;58.08;28.65;;;;;;;16.26;100.00;98257.84;1702391;84;21516;-74
2022/09/27 06:54:08;;;;;;;54.40;26.55;;;;;;;16.25;100.00;98252.09;1669145;86;21538;-71
2022/09/27 06:56:35;;;;;;;61.05;27.82;;;;;;;16.27;100.00;98253.89;1652360;86;21565;-73
2022/09/27 07:01:51;;;;;;;52.35;25.43;;;;;;;16.30;100.00;98246.16;1663710;86;21529;-71
2022/09/27 07:04:36;;;;;;;69.67;28.27;;;;;;;16.31;100.00;98246.34;1705949;84;21166;-72
2022/09/27 07:07:11;;;;;;;67.37;26.55;;;;;;;16.32;100.00;98243.79;1702080;84;21019;-73
2022/09/27 07:09:39;;;;;;;53.83;24.32;;;;;;;16.35;100.00;98252.73;1693097;84;21476;-73
2022/09/27 07:12:07;;;;;;;56.83;25.65;;;;;;;16.35;100.00;98256.91;1702830;84;21060;-71
2022/09/27 07:14:34;;;;;;;57.83;25.23;;;;;;;16.38;100.00;98258.89;1693288;84;21063;-71
2022/09/27 07:17:01;;;;;;;60.35;27.50;;;;;;;16.40;100.00;98258.50;1702831;84;21253;-68
2022/09/27 07:19:30;;;;;;;55.10;26.62;;;;;;;16.42;100.00;98265.86;1692481;84;21012;-76
2022/09/27 07:21:58;;;;;;;61.15;27.13;;;;;;;16.42;100.00;98258.33;1703005;84;21063;-69
2022/09/27 07:24:25;;;;;;;56.25;25.97;;;;;;;16.44;100.00;98257.94;1693157;84;21111;-76
2022/09/27 07:26:53;;;;;;;58.55;27.17;;;;;;;16.42;100.00;98255.55;1665465;84;21008;-75
2022/09/27 07:29:21;;;;;;;65.12;27.87;;;;;;;16.43;100.00;98254.35;1693073;84;21272;-72
2022/09/27 07:31:51;;;;;;;53.00;27.10;;;;;;;16.43;100.00;98252.16;1703341;84;21004;-71
2022/09/27 07:34:17;;;;;;;65.37;31.45;;;;;;;16.42;100.00;98252.77;1693186;84;20952;-76
2022/09/27 07:36:44;;;;;;;57.38;26.87;;;;;;;16.45;100.00;98254.55;1683433;84;21029;-76
2022/09/27 07:39:11;;;;;;;59.95;26.17;;;;;;;16.38;100.00;98260.28;1659983;86;21006;-78
2022/09/27 07:41:39;;;;;;;42.55;24.02;;;;;;;16.37;100.00;98259.29;1659275;86;22037;-74
2022/09/27 07:44:07;;;;;;;49.03;22.35;;;;;;;16.44;100.00;98249.59;1611783;89;21089;-75
2022/09/27 07:46:36;;;;;;;48.00;23.70;;;;;;;16.39;100.00;98244.41;1639049;87;21599;-75
2022/09/27 07:49:19;;;;;;;39.75;21.37;;;;;;;16.40;100.00;98239.05;1611880;89;20997;-71
2022/09/27 07:52:01;;;;;;;38.95;20.43;;;;;;;16.39;100.00;98240.24;1638205;87;21589;-76
2022/09/27 07:54:36;;;;;;;37.70;19.75;;;;;;;16.42;100.00;98233.89;1610822;89;21159;-75
2022/09/27 07:57:06;;;;;;;38.17;19.87;;;;;;;16.41;100.00;98235.09;1637968;87;21037;-76
2022/09/27 07:59:34;;;;;;;38.65;20.08;;;;;;;16.38;100.00;98228.32;1610128;89;21124;-67
2022/09/27 08:02:03;;;;;;;34.63;19.82;;;;;;;16.39;100.00;98234.07;1639023;87;20925;-69
2022/09/27 08:04:30;;;;;;;32.55;18.25;;;;;;;16.39;100.00;98237.47;1638920;87;21064;-66
2022/09/27 08:06:56;;;;;;;37.00;19.10;;;;;;;16.41;100.00;98242.83;1611850;89;21580;-74
2022/09/27 08:09:25;;;;;;;33.95;18.15;;;;;;;16.43;100.00;98234.09;1638854;87;20982;-75
2022/09/27 08:11:56;;;;;;;35.03;18.87;;;;;;;16.42;100.00;98235.29;1584529;89;21184;-68
2022/09/27 08:14:23;;;;;;;30.65;18.27;;;;;;;16.41;100.00;98230.93;1639140;87;20946;-66
2022/09/27 08:16:51;;;;;;;31.68;18.85;;;;;;;16.47;100.00;98234.91;1611882;89;21524;-69
2022/09/27 08:19:39;;;;;;;30.10;17.57;;;;;;;16.48;100.00;98228.77;1637469;87;21313;-74
2022/09/27 08:22:07;;;;;;;34.18;19.25;;;;;;;16.51;100.00;98235.70;1607516;87;21029;-68
2022/09/27 08:24:35;;;;;;;36.10;17.80;;;;;;;16.52;100.00;98234.53;1639225;87;20966;-74
2022/09/27 08:27:08;;;;;;;29.87;17.42;;;;;;;16.57;100.00;98235.33;1611488;89;21017;-68
2022/09/27 08:29:41;;;;;;;28.20;17.95;;;;;;;16.58;100.00;98231.38;1634020;87;21115;-74
2022/09/27 08:32:08;;;;;;;33.60;19.48;;;;;;;16.59;100.00;98225.42;1611848;89;21249;-76
2022/09/27 08:34:35;;;;;;;29.72;19.17;;;;;;;16.58;100.00;98234.93;1639130;87;21013;-67
2022/09/27 08:37:02;;;;;;;25.00;18.45;;;;;;;16.57;100.00;98235.33;1611834;87;20973;-72
2022/09/27 08:39:30;;;;;;;28.35;18.25;;;;;;;16.55;100.00;98239.30;1639153;87;20942;-68
2022/09/27 08:42:33;;;;;;;30.52;18.65;;;;;;;16.60;100.00;98240.13;1584794;89;21112;-72
2022/09/27 08:45:19;;;;;;;28.50;17.07;;;;;;;16.63;100.00;98239.34;1639309;87;20985;-67
2022/09/27 08:47:52;;;;;;;24.07;16.95;;;;;;;16.66;100.00;98230.20;1611715;89;21060;-65
2022/09/27 08:50:27;;;;;;;33.95;17.70;;;;;;;16.65;100.00;98234.96;1639141;87;21026;-71
2022/09/27 08:53:14;;;;;;;29.63;17.15;;;;;;;16.70;100.00;98233.78;1611996;89;21001;-66
2022/09/27 08:55:46;;;;;;;27.82;18.12;;;;;;;16.74;100.00;98234.59;1637739;87;20922;-66
2022/09/27 08:58:35;;;;;;;34.75;17.65;;;;;;;16.78;100.00;98238.19;1610759;89;21105;-65
2022/09/27 09:01:05;;;;;;;28.40;16.85;;;;;;;16.81;100.00;98235.79;1638750;85;21030;-73
2022/09/27 09:03:37;;;;;;;26.42;17.00;;;;;;;16.84;100.00;98223.91;1611007;89;21539;-70
2022/09/27 09:06:33;;;;;;;28.47;16.77;;;;;;;16.87;100.00;98220.33;1639135;86;21005;-71
2022/09/27 09:09:08;;;;;;;23.20;15.78;;;;;;;16.88;100.00;98226.88;1611979;89;20957;-76
2022/09/27 09:15:28;;;;;;;25.23;15.70;;;;;;;16.98;100.00;98230.06;1612028;89;20954;-75
2022/09/27 09:18:21;;;;;;;22.40;16.50;;;;;;;16.97;100.00;98223.72;1635607;87;21069;-74
2022/09/27 09:21:09;;;;;;;26.23;18.30;;;;;;;16.96;100.00;98231.05;1609330;89;20988;-77
2022/09/27 09:23:54;;;;;;;30.92;18.75;;;;;;;16.96;100.00;98236.02;1639081;87;21602;-76
2022/09/27 09:26:34;;;;;;;25.02;16.48;;;;;;;16.95;100.00;98232.25;1611804;89;20894;-75
2022/09/27 09:29:21;;;;;;;22.93;17.17;;;;;;;16.97;100.00;98227.09;1639095;87;20978;-72
2022/09/27 09:32:24;;;;;;;21.57;14.83;;;;;;;17.01;100.00;98230.66;1611905;89;21104;-77
2022/09/27 09:35:00;;;;;;;17.07;14.03;;;;;;;17.09;100.00;98232.31;1639113;87;20973;-76
2022/09/27 09:37:42;;;;;;;17.80;13.55;;;;;;;17.15;100.00;98229.91;1576781;89;21017;-72
2022/09/27 09:40:25;;;;;;;14.40;11.57;;;;;;;17.16;100.00;98228.73;1639143;87;21620;-73
2022/09/27 09:43:07;;;;;;;15.28;11.12;;;;;;;17.18;100.00;98224.94;1584639;89;37462;-73
2022/09/27 09:45:48;;;;;;;15.83;11.63;;;;;;;17.20;100.00;98225.94;1639149;87;21645;-76
2022/09/27 09:48:58;;;;;;;16.52;12.43;;;;;;;17.18;100.00;98227.72;1611879;89;21369;-75
2022/09/27 09:51:30;;;;;;;13.93;10.60;;;;;;;17.20;100.00;98230.11;1639119;87;21033;-70
2022/09/27 09:54:08;;;;;;;23.92;12.33;;;;;;;17.25;100.00;98226.94;1612005;89;21542;-75
2022/09/27 09:56:48;;;;;;;16.02;12.93;;;;;;;17.27;100.00;98231.52;1622349;87;20985;-73
2022/09/27 09:59:31;;;;;;;17.75;12.63;;;;;;;17.25;100.00;98231.91;1611996;89;20980;-71
2022/09/27 10:02:04;;;;;;;15.55;12.65;;;;;;;17.25;100.00;98227.73;1639075;87;20978;-74
2022/09/27 10:04:32;;;;;;;18.57;13.65;;;;;;;17.27;100.00;98218.40;1587426;89;21029;-76
2022/09/27 10:06:59;;;;;;;15.55;12.88;;;;;;;17.31;100.00;98221.19;1639047;87;21117;-73
2022/09/27 10:09:27;;;;;;;17.10;12.90;;;;;;;17.32;100.00;98217.78;1611927;89;21052;-76
2022/09/27 10:12:12;;;;;;;17.82;13.43;;;;;;;17.36;100.00;98214.42;1639170;87;20978;-73
2022/09/27 10:14:39;;;;;;;17.82;14.13;;;;;;;17.36;100.00;98216.62;1611796;89;21045;-66
2022/09/27 10:17:11;;;;;;;15.98;14.03;;;;;;;17.37;100.00;98218.78;1618597;87;21588;-75
2022/09/27 10:19:39;;;;;;;16.20;13.60;;;;;;;17.39;100.00;98220.58;1650821;87;21102;-75
2022/09/27 10:22:27;;;;;;;18.05;14.33;;;;;;;17.40;100.00;98224.94;1650899;86;21016;-66
2022/09/27 10:25:01;;;;;;;20.62;14.60;;;;;;;17.40;100.00;98222.96;1646512;86;21931;-71
2022/09/27 10:27:47;;;;;;;17.27;14.33;;;;;;;17.41;100.00;98223.77;1645340;86;21024;-75
2022/09/27 10:30:30;;;;;;;19.25;15.08;;;;;;;17.40;100.00;98222.96;1650905;87;20984;-74
2022/09/27 10:33:05;;;;;;;14.18;12.58;;;;;;;17.39;100.00;98213.62;1651085;87;21097;-70
2022/09/27 10:35:38;;;;;;;17.32;13.65;;;;;;;17.42;100.00;98208.64;1650768;87;21961;-74
2022/09/27 10:38:31;;;;;;;17.17;14.00;;;;;;;17.43;100.00;98206.08;1646653;84;21997;-75
2022/09/27 10:41:28;;;;;;;17.32;14.28;;;;;;;17.45;100.00;98213.41;1664365;86;20917;-74
2022/09/27 10:44:00;;;;;;;17.73;13.48;;;;;;;17.46;100.00;98208.05;1664898;85;21019;-74
2022/09/27 10:46:31;;;;;;;16.05;13.68;;;;;;;17.48;100.00;98212.63;1655698;86;21166;-74
2022/09/27 10:49:19;;;;;;;17.15;13.85;;;;;;;17.49;100.00;98223.16;1664116;86;20984;-76
2022/09/27 10:51:50;;;;;;;15.93;13.37;;;;;;;17.49;100.00;98214.21;1665085;86;20940;-69
2022/09/27 10:54:26;;;;;;;16.30;14.63;;;;;;;17.47;100.00;98213.03;1665133;86;21027;-68
2022/09/27 10:57:05;;;;;;;17.37;13.53;;;;;;;17.45;100.00;98209.23;1664925;86;21502;-73
2022/09/27 10:59:35;;;;;;;18.20;13.68;;;;;;;17.46;100.00;98214.21;1664814;86;21528;-68
2022/09/27 11:02:02;;;;;;;18.15;15.08;;;;;;;17.47;100.00;98213.03;1664828;86;20869;-69
2022/09/27 11:04:35;;;;;;;15.90;14.10;;;;;;;17.48;100.00;98202.08;1665336;85;21012;-75
2022/09/27 11:07:18;;;;;;;21.17;15.72;;;;;;;17.49;100.00;98195.31;1665124;86;20889;-70
2022/09/27 11:09:54;;;;;;;20.02;15.40;;;;;;;17.51;100.00;98197.11;1665258;85;21032;-75
2022/09/27 11:12:21;;;;;;;23.00;15.80;;;;;;;17.54;100.00;98189.34;1665014;86;21138;-74
2022/09/27 11:15:02;;;;;;;20.52;16.02;;;;;;;17.54;100.00;98190.73;1665177;86;20996;-76
2022/09/27 11:18:03;;;;;;;19.73;15.45;;;;;;;17.53;100.00;98183.59;1664918;86;20861;-74
2022/09/27 11:20:55;;;;;;;19.50;15.90;;;;;;;17.55;100.00;98178.42;1664650;86;21046;-75
2022/09/27 11:23:59;;;;;;;19.10;16.17;;;;;;;17.56;100.00;98167.47;1664748;86;20901;-74
2022/09/27 11:26:40;;;;;;;22.02;16.17;;;;;;;17.55;100.00;98151.16;1665002;86;21759;-75
2022/09/27 11:29:30;;;;;;;20.55;15.23;;;;;;;17.52;100.00;98163.29;1664921;86;21516;-74
2022/09/27 11:32:31;;;;;;;21.93;15.58;;;;;;;17.57;100.00;98178.02;1645403;86;20979;-75
2022/09/27 11:35:06;;;;;;;19.48;15.63;;;;;;;17.66;100.00;98181.16;1664960;86;21496;-76
2022/09/27 11:38:15;;;;;;;17.82;14.53;;;;;;;17.68;100.00;98189.92;1664794;84;21946;-71
2022/09/27 11:40:59;;;;;;;21.90;15.10;;;;;;;17.69;100.00;98184.53;1670484;86;21617;-75
2022/09/27 11:44:03;;;;;;;22.48;16.70;;;;;;;17.76;100.00;98176.77;1638554;86;21042;-74
2022/09/27 11:46:34;;;;;;;;;;;;;;;17.80;100.00;98172.58;1673073;86;21533;-75
2022/09/27 11:49:41;;;;;;;19.85;16.45;;;;;;;17.76;100.00;98175.37;1670422;86;20121;-74
2022/09/27 11:52:36;;;;;;;22.13;17.65;;;;;;;17.67;100.00;98182.77;1670809;85;20943;-73
2022/09/27 11:55:20;;;;;;;23.45;17.35;;;;;;;17.68;100.00;98187.13;1671057;86;21361;-68
2022/09/27 11:58:12;;;;;;;20.97;16.87;;;;;;;17.69;100.00;98180.36;1670750;86;20999;-70
2022/09/27 12:01:10;;;;;;;21.20;16.87;;;;;;;17.72;100.00;98175.41;1632577;86;21011;-74
2022/09/27 12:04:02;;;;;;;21.80;16.67;;;;;;;17.75;100.00;98179.36;1670939;86;21055;-71
2022/09/27 12:06:37;;;;;;;24.37;17.73;;;;;;;17.81;100.00;98175.58;1666158;86;21036;-75
2022/09/27 12:09:18;;;;;;;23.07;17.87;;;;;;;17.88;100.00;98175.53;1665098;86;21153;-74
2022/09/27 12:11:53;;;;;;;23.38;16.70;;;;;;;17.94;100.00;98180.10;1670772;86;20964;-76
2022/09/27 12:14:43;;;;;;;22.85;17.23;;;;;;;17.99;100.00;98181.89;1670892;86;20968;-74
2022/09/27 12:17:30;;;;;;;20.70;16.87;;;;;;;18.00;100.00;98187.64;1666259;86;21023;-75
2022/09/27 12:19:58;;;;;;;20.00;15.83;;;;;;;17.98;100.00;98187.86;1671068;86;20971;-74
2022/09/27 12:22:37;;;;;;;24.63;16.52;;;;;;;17.96;100.00;98195.83;1670563;86;21240;-75
2022/09/27 12:25:05;;;;;;;28.10;18.42;;;;;;;18.04;100.00;98186.83;1668932;86;20948;-75
2022/09/27 12:27:48;;;;;;;23.87;18.17;;;;;;;18.02;100.00;98178.87;1645598;86;21551;-76
2022/09/27 12:30:16;;;;;;;27.52;19.15;;;;;;;17.98;100.00;98170.53;1670943;86;21651;-76
2022/09/27 12:32:58;;;;;;;24.87;17.45;;;;;;;17.91;100.00;98175.34;1670694;86;21035;-76
2022/09/27 12:35:29;;;;;;;22.20;18.10;;;;;;;17.95;100.00;98164.97;1670834;86;21036;-76